createdAt,value
2018-04-15T00:00:01.319Z,10.72
2018-04-15T00:02:29.788Z,10.72
2018-04-15T00:04:58.352Z,10.79
2018-04-15T00:07:29.000Z,10.81
2018-04-15T00:09:57.422Z,10.68
2018-04-15T00:12:25.851Z,10.63
2018-04-15T00:14:54.333Z,10.51
2018-04-15T00:17:22.947Z,10.41
2018-04-15T00:19:53.319Z,10.30
2018-04-15T00:22:21.763Z,10.24
2018-04-15T00:24:50.197Z,10.20
2018-04-15T00:27:18.606Z,10.12
2018-04-15T00:29:47.103Z,10.14
2018-04-15T00:32:15.511Z,10.11
2018-04-15T00:34:43.974Z,10.09
2018-04-15T00:37:12.454Z,10.06
2018-04-15T00:39:40.839Z,10.03
2018-04-15T00:42:09.485Z,9.89
2018-04-15T00:44:37.880Z,9.79
2018-04-15T00:47:06.292Z,9.92
2018-04-15T00:49:34.722Z,9.84
2018-04-15T00:52:03.138Z,10.04
2018-04-15T00:54:31.607Z,9.78
2018-04-15T00:57:01.995Z,9.75
2018-04-15T00:59:31.288Z,9.69
2018-04-15T01:01:59.756Z,9.66
2018-04-15T01:04:28.183Z,9.75
2018-04-15T01:07:00.857Z,9.64
2018-04-15T01:09:29.290Z,9.51
2018-04-15T01:11:57.711Z,9.73
2018-04-15T01:14:26.163Z,9.75
2018-04-15T01:16:54.565Z,9.50
2018-04-15T01:19:22.992Z,9.34
2018-04-15T01:21:51.451Z,9.46
2018-04-15T01:24:19.880Z,9.42
2018-04-15T01:26:48.283Z,9.23
2018-04-15T01:29:16.711Z,9.25
2018-04-15T01:31:45.111Z,9.19
2018-04-15T01:34:13.541Z,9.21
2018-04-15T01:36:41.975Z,9.20
2018-04-15T01:39:10.416Z,9.40
2018-04-15T01:41:38.817Z,9.31
2018-04-15T01:44:07.390Z,9.26
2018-04-15T01:46:35.751Z,9.29
2018-04-15T01:49:04.150Z,9.29
2018-04-15T01:51:32.575Z,9.23
2018-04-15T01:54:01.149Z,9.22
2018-04-15T01:56:29.539Z,9.36
2018-04-15T01:59:00.016Z,9.27
2018-04-15T02:01:30.383Z,9.10
2018-04-15T02:04:02.396Z,9.03
2018-04-15T02:06:31.043Z,9.09
2018-04-15T02:09:01.549Z,9.02
2018-04-15T02:11:29.983Z,9.02
2018-04-15T02:13:58.593Z,8.98
2018-04-15T02:16:29.163Z,8.91
2018-04-15T02:18:57.643Z,8.88
2018-04-15T02:21:28.047Z,8.82
2018-04-15T02:23:58.555Z,8.78
2018-04-15T02:26:27.015Z,8.78
2018-04-15T02:28:55.426Z,8.67
2018-04-15T02:31:23.846Z,8.60
2018-04-15T02:33:52.310Z,8.59
2018-04-15T02:36:20.886Z,8.57
2018-04-15T02:38:51.367Z,8.58
2018-04-15T02:41:19.844Z,8.86
2018-04-15T02:43:51.712Z,8.67
2018-04-15T02:46:20.083Z,8.74
2018-04-15T02:48:48.508Z,8.67
2018-04-15T02:51:23.016Z,8.33
2018-04-15T02:53:51.579Z,8.35
2018-04-15T02:56:24.095Z,8.19
2018-04-15T02:58:52.858Z,8.08
2018-04-15T03:01:24.932Z,8.46
2018-04-15T03:03:53.424Z,8.33
2018-04-15T03:06:21.811Z,8.18
2018-04-15T03:08:50.291Z,8.28
2018-04-15T03:11:19.089Z,8.17
2018-04-15T03:13:47.528Z,8.18
2018-04-15T03:16:15.935Z,8.12
2018-04-15T03:18:44.364Z,8.09
2018-04-15T03:21:12.775Z,8.15
2018-04-15T03:23:41.179Z,8.06
2018-04-15T03:26:09.632Z,8.03
2018-04-15T03:28:39.416Z,7.97
2018-04-15T03:31:07.776Z,7.78
2018-04-15T03:33:39.694Z,8.04
2018-04-15T03:36:08.179Z,8.17
2018-04-15T03:38:38.379Z,8.14
2018-04-15T03:41:08.730Z,7.99
2018-04-15T03:43:37.141Z,7.95
2018-04-15T03:46:05.611Z,7.86
2018-04-15T03:48:34.183Z,7.73
2018-04-15T03:51:02.652Z,7.73
2018-04-15T03:53:33.290Z,7.77
2018-04-15T03:56:03.380Z,7.80
2018-04-15T03:58:31.735Z,7.98
2018-04-15T04:01:02.255Z,7.97
2018-04-15T04:03:30.670Z,7.90
2018-04-15T04:05:59.077Z,7.86
2018-04-15T04:08:27.562Z,7.82
2018-04-15T04:10:55.975Z,7.69
2018-04-15T04:13:24.427Z,7.70
2018-04-15T04:15:54.445Z,7.64
2018-04-15T04:18:29.139Z,7.64
2018-04-15T04:21:03.636Z,7.57
2018-04-15T04:23:41.595Z,7.47
2018-04-15T04:26:12.013Z,7.55
2018-04-15T04:28:40.448Z,7.61
2018-04-15T04:31:11.939Z,7.56
2018-04-15T04:33:41.331Z,7.51
2018-04-15T04:36:09.734Z,7.44
2018-04-15T04:38:38.191Z,7.46
2018-04-15T04:41:06.586Z,7.28
2018-04-15T04:43:35.009Z,7.51
2018-04-15T04:46:03.415Z,7.48
2018-04-15T04:48:31.858Z,7.38
2018-04-15T04:51:00.301Z,7.29
2018-04-15T04:53:30.839Z,7.32
2018-04-15T04:56:01.046Z,7.37
2018-04-15T04:58:29.468Z,7.43
2018-04-15T05:00:59.451Z,7.46
2018-04-15T05:03:29.874Z,7.52
2018-04-15T05:06:00.384Z,7.50
2018-04-15T05:08:28.876Z,7.56
2018-04-15T05:10:59.707Z,7.66
2018-04-15T05:13:30.290Z,7.94
2018-04-15T05:16:00.708Z,8.02
2018-04-15T05:18:31.214Z,7.96
2018-04-15T05:20:59.624Z,7.94
2018-04-15T05:23:28.035Z,7.87
2018-04-15T05:25:56.500Z,8.23
2018-04-15T05:28:24.919Z,7.97
2018-04-15T05:30:53.337Z,8.16
2018-04-15T05:33:21.804Z,8.32
2018-04-15T05:35:50.194Z,8.13
2018-04-15T05:38:18.764Z,8.08
2018-04-15T05:40:47.179Z,8.12
2018-04-15T05:43:15.593Z,8.45
2018-04-15T05:45:45.159Z,8.71
2018-04-15T05:48:14.773Z,8.63
2018-04-15T05:50:43.245Z,8.57
2018-04-15T05:53:11.627Z,8.48
2018-04-15T05:55:40.008Z,8.54
2018-04-15T05:58:08.454Z,8.70
2018-04-15T06:00:38.868Z,8.94
2018-04-15T06:03:08.710Z,8.97
2018-04-15T06:05:37.151Z,9.45
2018-04-15T06:08:05.518Z,9.62
2018-04-15T06:10:35.536Z,10.04
2018-04-15T06:13:05.368Z,10.13
2018-04-15T06:15:33.793Z,10.14
2018-04-15T06:18:02.223Z,10.42
2018-04-15T06:20:30.649Z,10.68
2018-04-15T06:22:59.102Z,10.74
2018-04-15T06:25:29.726Z,10.63
2018-04-15T06:27:59.787Z,11.03
2018-04-15T06:30:29.710Z,11.27
2018-04-15T06:32:58.085Z,11.09
2018-04-15T06:35:26.541Z,11.35
2018-04-15T06:37:54.946Z,11.64
2018-04-15T06:40:23.672Z,11.65
2018-04-15T06:42:53.259Z,11.98
2018-04-15T06:45:21.680Z,12.17
2018-04-15T06:47:50.410Z,12.33
2018-04-15T06:50:18.848Z,12.85
2018-04-15T06:52:47.216Z,12.78
2018-04-15T06:55:15.660Z,13.03
2018-04-15T06:57:44.122Z,13.43
2018-04-15T07:00:12.538Z,13.87
2018-04-15T07:02:42.348Z,13.88
2018-04-15T07:05:12.090Z,14.15
2018-04-15T07:07:40.551Z,14.91
2018-04-15T07:10:10.728Z,15.57
2018-04-15T07:12:40.570Z,16.02
2018-04-15T07:15:08.994Z,16.48
2018-04-15T07:17:37.718Z,16.99
2018-04-15T07:20:06.134Z,17.33
2018-04-15T07:22:34.576Z,17.85
2018-04-15T07:25:03.188Z,18.24
2018-04-15T07:27:31.628Z,18.73
2018-04-15T07:30:00.059Z,18.98
2018-04-15T07:32:27.673Z,19.06
2018-04-15T07:34:57.124Z,19.60
2018-04-15T07:37:25.847Z,19.35
2018-04-15T07:39:55.509Z,19.42
2018-04-15T07:42:25.051Z,19.78
2018-04-15T07:44:53.472Z,20.18
2018-04-15T07:47:21.834Z,20.31
2018-04-15T07:49:50.435Z,20.71
2018-04-15T07:52:18.895Z,20.15
2018-04-15T07:54:47.271Z,20.35
2018-04-15T07:57:16.819Z,20.76
2018-04-15T07:59:45.339Z,21.65
2018-04-15T08:02:14.360Z,22.25
2018-04-15T08:04:42.024Z,21.70
2018-04-15T08:07:10.451Z,22.70
2018-04-15T08:09:38.860Z,22.80
2018-04-15T08:12:07.323Z,23.09
2018-04-15T08:14:34.689Z,22.99
2018-04-15T08:17:03.131Z,22.84
2018-04-15T08:19:31.562Z,22.33
2018-04-15T08:22:00.272Z,22.65
2018-04-15T08:24:28.725Z,22.69
2018-04-15T08:26:57.156Z,22.06
2018-04-15T08:29:25.603Z,21.54
2018-04-15T08:31:54.031Z,21.68
2018-04-15T08:34:22.766Z,21.11
2018-04-15T08:36:51.195Z,21.28
2018-04-15T08:39:19.571Z,20.79
2018-04-15T08:41:47.996Z,20.88
2018-04-15T08:44:17.483Z,21.08
2018-04-15T08:46:47.248Z,21.86
2018-04-15T08:49:15.610Z,22.67
2018-04-15T08:51:44.035Z,22.89
2018-04-15T08:54:13.787Z,23.30
2018-04-15T08:56:45.355Z,23.95
2018-04-15T08:59:13.808Z,24.07
2018-04-15T09:01:42.224Z,23.59
2018-04-15T09:04:10.896Z,23.19
2018-04-15T09:06:40.338Z,24.05
2018-04-15T09:09:08.795Z,24.73
2018-04-15T09:11:37.277Z,24.43
2018-04-15T09:14:05.711Z,24.59
2018-04-15T09:16:34.127Z,23.36
2018-04-15T09:19:03.590Z,23.04
2018-04-15T09:21:33.092Z,23.56
2018-04-15T09:24:02.683Z,23.09
2018-04-15T09:26:31.108Z,22.84
2018-04-15T09:29:00.684Z,22.41
2018-04-15T09:31:31.010Z,22.00
2018-04-15T09:33:59.508Z,21.60
2018-04-15T09:36:27.895Z,22.56
2018-04-15T09:38:56.321Z,22.82
2018-04-15T09:41:25.835Z,22.69
2018-04-15T09:43:55.233Z,23.32
2018-04-15T09:46:24.640Z,23.73
2018-04-15T09:48:53.099Z,23.75
2018-04-15T09:51:21.844Z,23.19
2018-04-15T09:53:50.214Z,22.64
2018-04-15T09:56:19.764Z,21.90
2018-04-15T09:58:48.326Z,22.16
2018-04-15T10:01:16.740Z,21.95
2018-04-15T10:03:45.109Z,22.01
2018-04-15T10:06:17.335Z,22.32
2018-04-15T10:08:45.836Z,22.07
2018-04-15T10:11:14.249Z,21.86
2018-04-15T10:13:42.715Z,22.11
2018-04-15T10:16:12.140Z,22.17
2018-04-15T10:18:40.550Z,22.31
2018-04-15T10:21:10.166Z,22.11
2018-04-15T10:23:38.639Z,23.08
2018-04-15T10:26:07.078Z,23.26
2018-04-15T10:28:36.787Z,22.82
2018-04-15T10:31:05.234Z,22.46
2018-04-15T10:33:33.667Z,21.88
2018-04-15T10:36:03.612Z,21.88
2018-04-15T10:38:32.056Z,21.74
2018-04-15T10:41:00.686Z,21.58
2018-04-15T10:43:29.087Z,21.35
2018-04-15T10:45:57.515Z,21.69
2018-04-15T10:48:25.952Z,21.56
2018-04-15T10:50:54.502Z,21.30
2018-04-15T10:53:22.960Z,21.16
2018-04-15T10:55:51.374Z,20.97
2018-04-15T10:58:20.091Z,20.50
2018-04-15T11:00:48.525Z,20.30
2018-04-15T11:03:18.328Z,20.28
2018-04-15T11:05:46.771Z,20.15
2018-04-15T11:08:15.185Z,19.92
2018-04-15T11:10:45.249Z,19.75
2018-04-15T11:13:13.663Z,19.52
2018-04-15T11:15:42.099Z,19.49
2018-04-15T11:18:10.535Z,19.83
2018-04-15T11:20:39.032Z,19.79
2018-04-15T11:23:08.784Z,19.68
2018-04-15T11:25:37.213Z,19.91
2018-04-15T11:28:08.548Z,20.09
2018-04-15T11:30:36.978Z,19.92
2018-04-15T11:33:05.363Z,20.07
2018-04-15T11:35:33.779Z,19.98
2018-04-15T11:38:02.234Z,19.88
2018-04-15T11:40:32.212Z,20.22
2018-04-15T11:43:00.643Z,20.09
2018-04-15T11:45:29.109Z,20.35
2018-04-15T11:47:57.569Z,20.53
2018-04-15T11:50:25.977Z,20.13
2018-04-15T11:52:55.509Z,20.16
2018-04-15T11:55:25.503Z,19.89
2018-04-15T11:57:53.939Z,19.99
2018-04-15T12:00:22.585Z,19.66
2018-04-15T12:02:51.031Z,19.84
2018-04-15T12:05:19.433Z,19.75
2018-04-15T12:07:47.900Z,19.91
2018-04-15T12:10:16.311Z,19.89
2018-04-15T12:12:45.779Z,19.77
2018-04-15T12:15:15.767Z,19.70
2018-04-15T12:17:44.259Z,19.65
2018-04-15T12:20:13.507Z,19.56
2018-04-15T12:22:42.032Z,19.71
2018-04-15T12:25:10.420Z,19.74
2018-04-15T12:27:38.821Z,19.71
2018-04-15T12:30:08.337Z,19.84
2018-04-15T12:32:36.778Z,19.83
2018-04-15T12:35:05.393Z,19.74
2018-04-15T12:37:35.232Z,19.66
2018-04-15T12:40:03.668Z,19.72
2018-04-15T12:42:32.142Z,19.87
2018-04-15T12:45:00.516Z,19.35
2018-04-15T12:47:31.931Z,19.25
2018-04-15T12:50:00.347Z,19.44
2018-04-15T12:52:28.716Z,19.67
2018-04-15T12:54:58.515Z,19.57
2018-04-15T12:57:26.919Z,19.65
2018-04-15T12:59:55.356Z,19.38
2018-04-15T13:02:24.052Z,19.14
2018-04-15T13:04:52.480Z,19.38
2018-04-15T13:07:20.943Z,19.13
2018-04-15T13:09:49.378Z,19.01
2018-04-15T13:12:18.816Z,19.23
2018-04-15T13:14:47.407Z,19.18
2018-04-15T13:17:15.794Z,19.40
2018-04-15T13:19:45.237Z,19.70
2018-04-15T13:22:13.850Z,19.47
2018-04-15T13:24:42.283Z,19.30
2018-04-15T13:27:10.715Z,19.24
2018-04-15T13:29:39.135Z,19.50
2018-04-15T13:32:07.565Z,19.46
2018-04-15T13:34:36.040Z,19.34
2018-04-15T13:37:05.516Z,19.52
2018-04-15T13:39:34.079Z,19.33
2018-04-15T13:42:02.508Z,19.49
2018-04-15T13:44:30.834Z,19.46
2018-04-15T13:46:59.505Z,19.47
2018-04-15T13:49:27.899Z,19.48
2018-04-15T13:51:56.315Z,19.53
2018-04-15T13:54:24.735Z,19.58
2018-04-15T13:56:53.125Z,19.63
2018-04-15T13:59:22.897Z,19.76
2018-04-15T14:01:51.292Z,19.61
2018-04-15T14:04:20.905Z,19.59
2018-04-15T14:06:50.772Z,19.48
2018-04-15T14:09:19.168Z,19.44
2018-04-15T14:11:50.103Z,19.45
2018-04-15T14:14:18.464Z,19.57
2018-04-15T14:16:47.973Z,19.58
2018-04-15T14:19:17.453Z,19.45
2018-04-15T14:21:47.118Z,19.46
2018-04-15T14:24:15.511Z,19.41
2018-04-15T14:26:43.943Z,19.34
2018-04-15T14:29:12.380Z,19.31
2018-04-15T14:31:41.939Z,19.26
2018-04-15T14:34:10.407Z,19.12
2018-04-15T14:36:38.830Z,19.08
2018-04-15T14:39:08.315Z,19.24
2018-04-15T14:41:38.164Z,19.21
2018-04-15T14:44:08.443Z,19.18
2018-04-15T14:46:36.891Z,19.05
2018-04-15T14:49:06.534Z,18.98
2018-04-15T14:51:34.996Z,19.26
2018-04-15T14:54:03.416Z,19.24
2018-04-15T14:56:31.879Z,19.31
2018-04-15T14:59:01.743Z,19.39
2018-04-15T15:01:30.171Z,19.47
2018-04-15T15:03:58.575Z,19.43
2018-04-15T15:06:26.984Z,19.48
2018-04-15T15:08:56.499Z,19.48
2018-04-15T15:11:26.368Z,19.44
2018-04-15T15:13:54.827Z,19.51
2018-04-15T15:16:23.409Z,19.45
2018-04-15T15:18:51.875Z,19.57
2018-04-15T15:21:20.299Z,19.34
2018-04-15T15:23:48.726Z,19.44
2018-04-15T15:26:17.146Z,19.46
2018-04-15T15:28:48.267Z,19.48
2018-04-15T15:31:18.107Z,19.54
2018-04-15T15:33:47.602Z,19.46
2018-04-15T15:36:17.831Z,19.44
2018-04-15T15:38:47.273Z,19.35
2018-04-15T15:41:15.771Z,19.12
2018-04-15T15:43:45.438Z,19.13
2018-04-15T15:46:13.849Z,19.15
2018-04-15T15:48:42.201Z,19.27
2018-04-15T15:51:10.656Z,19.26
2018-04-15T15:53:39.048Z,19.35
2018-04-15T15:56:08.498Z,19.29
2018-04-15T15:58:36.898Z,19.33
2018-04-15T16:01:05.405Z,19.33
2018-04-15T16:03:34.531Z,19.47
2018-04-15T16:06:04.263Z,19.40
2018-04-15T16:08:33.694Z,19.47
2018-04-15T16:11:02.084Z,19.35
2018-04-15T16:13:30.484Z,19.45
2018-04-15T16:15:58.881Z,19.43
2018-04-15T16:18:27.216Z,19.39
2018-04-15T16:20:55.883Z,19.32
2018-04-15T16:23:24.308Z,19.24
2018-04-15T16:25:52.704Z,19.07
2018-04-15T16:28:22.586Z,19.08
2018-04-15T16:30:50.951Z,19.00
2018-04-15T16:33:21.103Z,18.94
2018-04-15T16:35:49.475Z,18.86
2018-04-15T16:38:17.843Z,18.83
2018-04-15T16:40:46.275Z,18.81
2018-04-15T16:43:14.755Z,18.67
2018-04-15T16:45:43.127Z,18.69
2018-04-15T16:48:11.515Z,18.68
2018-04-15T16:50:41.655Z,18.50
2018-04-15T16:53:10.047Z,18.43
2018-04-15T16:55:38.422Z,18.43
2018-04-15T16:58:06.852Z,18.49
2018-04-15T17:00:35.218Z,18.37
2018-04-15T17:03:03.548Z,18.41
2018-04-15T17:05:31.918Z,18.45
2018-04-15T17:08:00.339Z,18.38
2018-04-15T17:10:28.717Z,18.37
2018-04-15T17:12:57.058Z,18.30
2018-04-15T17:15:25.449Z,18.38
2018-04-15T17:17:53.888Z,18.29
2018-04-15T17:20:22.483Z,18.27
2018-04-15T17:22:50.846Z,18.16
2018-04-15T17:25:21.253Z,18.21
2018-04-15T17:27:49.654Z,18.22
2018-04-15T17:30:18.034Z,18.21
2018-04-15T17:32:46.407Z,18.14
2018-04-15T17:35:14.808Z,18.15
2018-04-15T17:37:45.313Z,18.05
2018-04-15T17:40:13.731Z,18.06
2018-04-15T17:42:42.132Z,17.96
2018-04-15T17:45:12.068Z,17.87
2018-04-15T17:47:41.251Z,17.85
2018-04-15T17:50:09.648Z,17.67
2018-04-15T17:52:37.972Z,17.65
2018-04-15T17:55:08.182Z,17.51
2018-04-15T17:57:36.599Z,17.41
2018-04-15T18:00:05.278Z,17.36
2018-04-15T18:02:34.651Z,17.36
2018-04-15T18:05:03.022Z,17.46
2018-04-15T18:07:31.459Z,17.34
2018-04-15T18:09:59.843Z,17.23
2018-04-15T18:12:28.283Z,17.26
2018-04-15T18:14:56.953Z,17.30
2018-04-15T18:17:29.445Z,17.18
2018-04-15T18:19:57.815Z,17.32
2018-04-15T18:22:26.185Z,17.17
2018-04-15T18:24:54.762Z,17.29
2018-04-15T18:27:25.234Z,17.23
2018-04-15T18:29:53.581Z,17.34
2018-04-15T18:32:24.104Z,17.31
2018-04-15T18:34:52.515Z,17.26
2018-04-15T18:37:20.983Z,17.13
2018-04-15T18:39:50.965Z,17.02
2018-04-15T18:42:19.363Z,17.06
2018-04-15T18:44:49.844Z,16.94
2018-04-15T18:47:18.247Z,17.06
2018-04-15T18:49:46.682Z,17.04
2018-04-15T18:52:15.074Z,16.83
2018-04-15T18:54:43.489Z,16.83
2018-04-15T18:57:11.910Z,16.86
2018-04-15T18:59:42.046Z,17.11
2018-04-15T19:02:10.561Z,16.95
2018-04-15T19:04:38.954Z,16.91
2018-04-15T19:07:07.338Z,16.73
2018-04-15T19:09:35.711Z,16.79
2018-04-15T19:12:04.095Z,16.88
2018-04-15T19:14:34.544Z,16.85
2018-04-15T19:17:06.739Z,16.76
2018-04-15T19:19:35.235Z,16.61
2018-04-15T19:22:03.824Z,16.54
2018-04-15T19:24:32.255Z,16.46
2018-04-15T19:27:00.632Z,16.43
2018-04-15T19:29:29.058Z,16.41
2018-04-15T19:31:57.442Z,16.38
2018-04-15T19:34:27.899Z,16.38
2018-04-15T19:36:58.251Z,16.42
2018-04-15T19:39:28.819Z,16.57
2018-04-15T19:41:57.234Z,16.84
2018-04-15T19:44:29.215Z,16.55
2018-04-15T19:46:57.699Z,16.34
2018-04-15T19:49:26.107Z,16.34
2018-04-15T19:51:54.567Z,16.18
2018-04-15T19:54:23.002Z,16.02
2018-04-15T19:56:51.526Z,15.93
2018-04-15T19:59:22.592Z,15.97
2018-04-15T20:01:53.009Z,16.01
2018-04-15T20:04:21.395Z,15.92
2018-04-15T20:06:49.749Z,15.93
2018-04-15T20:09:20.148Z,15.96
2018-04-15T20:11:48.584Z,16.09
2018-04-15T20:14:16.985Z,15.96
2018-04-15T20:16:45.399Z,15.81
2018-04-15T20:19:15.927Z,15.73
2018-04-15T20:21:44.389Z,15.62
2018-04-15T20:24:14.995Z,15.39
2018-04-15T20:26:43.387Z,15.22
2018-04-15T20:29:13.612Z,15.11
2018-04-15T20:31:41.979Z,15.09
2018-04-15T20:34:10.395Z,15.00
2018-04-15T20:36:38.815Z,14.99
2018-04-15T20:39:07.256Z,15.01
2018-04-15T20:41:37.367Z,14.85
2018-04-15T20:44:05.851Z,14.73
2018-04-15T20:46:36.207Z,14.71
2018-04-15T20:49:04.587Z,14.66
2018-04-15T20:51:34.685Z,14.72
2018-04-15T20:54:03.048Z,14.63
2018-04-15T20:56:31.483Z,14.60
2018-04-15T20:58:59.856Z,14.56
2018-04-15T21:01:29.953Z,14.51
2018-04-15T21:03:58.378Z,14.49
2018-04-15T21:06:26.783Z,14.46
2018-04-15T21:08:55.181Z,14.39
2018-04-15T21:11:25.315Z,14.26
2018-04-15T21:13:53.727Z,14.30
2018-04-15T21:16:22.078Z,14.10
2018-04-15T21:18:54.065Z,14.20
2018-04-15T21:21:22.463Z,14.16
2018-04-15T21:23:50.809Z,14.02
2018-04-15T21:26:19.203Z,13.92
2018-04-15T21:28:47.516Z,13.93
2018-04-15T21:31:15.902Z,13.94
2018-04-15T21:33:44.211Z,14.08
2018-04-15T21:36:12.670Z,13.99
2018-04-15T21:38:41.143Z,14.02
2018-04-15T21:41:13.575Z,14.02
2018-04-15T21:43:45.456Z,13.99
2018-04-15T21:46:13.848Z,13.98
2018-04-15T21:48:42.337Z,14.06
2018-04-15T21:51:10.724Z,14.08
2018-04-15T21:53:39.053Z,13.99
2018-04-15T21:56:07.479Z,13.94
2018-04-15T21:58:37.424Z,13.95
2018-04-15T22:01:05.844Z,13.95
2018-04-15T22:03:35.931Z,13.89
2018-04-15T22:06:04.379Z,13.73
2018-04-15T22:08:34.864Z,13.79
2018-04-15T22:11:03.247Z,13.80
2018-04-15T22:13:31.628Z,13.80
2018-04-15T22:16:01.571Z,13.76
2018-04-15T22:18:29.979Z,13.65
2018-04-15T22:21:00.415Z,13.55
2018-04-15T22:23:36.454Z,13.45
2018-04-15T22:26:04.854Z,13.25
2018-04-15T22:28:33.278Z,13.31
2018-04-15T22:31:05.380Z,13.24
2018-04-15T22:33:35.802Z,13.12
2018-04-15T22:36:04.171Z,13.17
2018-04-15T22:38:36.299Z,13.22
2018-04-15T22:41:04.700Z,13.22
2018-04-15T22:43:36.760Z,13.26
2018-04-15T22:46:05.155Z,13.11
2018-04-15T23:01:58.991Z,13.22
2018-04-15T23:04:27.452Z,13.18
2018-04-15T23:06:57.926Z,13.18
2018-04-15T23:09:28.145Z,13.09
2018-04-15T23:12:01.675Z,13.05
2018-04-15T23:14:31.690Z,13.04
2018-04-15T23:17:02.207Z,13.06
2018-04-15T23:19:30.567Z,13.08
2018-04-15T23:21:59.199Z,13.13
2018-04-15T23:24:27.559Z,13.09
2018-04-15T23:26:55.967Z,13.07
2018-04-15T23:29:26.485Z,13.06
2018-04-15T23:31:54.881Z,13.03
2018-04-15T23:34:31.574Z,13.04
2018-04-15T23:36:59.966Z,12.96
2018-04-15T23:39:28.376Z,13.01
2018-04-15T23:41:56.884Z,12.95
2018-04-15T23:44:25.317Z,12.88
2018-04-15T23:46:53.764Z,12.88
2018-04-15T23:49:22.201Z,12.87
2018-04-15T23:51:50.607Z,12.77
2018-04-15T23:54:19.042Z,12.80
2018-04-15T23:56:54.302Z,12.73
2018-04-15T23:59:22.708Z,12.79
